| time (UTC) | temp C | wind direction | speed KPH | gust KPH | rain 1hr cm | rain 24hr cm | rain mn cm | humidity % | barometer mb |
| 20260506232533 | 26 | 333 | 11.3 | 19.3 | 0.00 | 0.00 | 0.00 | 27 | |
| 20260506232032 | 26 | 347 | 14.5 | 24.1 | 0.00 | 0.00 | 0.00 | 27 | |
| 20260506231029 | 26 | 21 | 16.1 | 25.7 | 0.00 | 0.00 | 0.00 | 29 | |
| 20260506230525 | 26 | 322 | 6.4 | 17.7 | 0.00 | 0.00 | 0.00 | 28 | |
| 20260506230025 | 26 | 10 | 6.4 | 19.3 | 0.00 | 0.00 | 0.00 | 28 | |
| 20260506225520 | 26 | 330 | 16.1 | 25.7 | 0.00 | 0.00 | 0.00 | 28 | |
| 20260506225019 | 26 | 10 | 14.5 | 27.4 | 0.00 | 0.00 | 0.00 | 27 | |
| 20260506224517 | 26 | 25 | 11.3 | 22.5 | 0.00 | 0.00 | 0.00 | 29 | |
| 20260506224017 | 26 | 59 | 12.9 | 22.5 | 0.00 | 0.00 | 0.00 | 30 | |
| 20260506223515 | 26 | 53 | 1.6 | 11.3 | 0.00 | 0.00 | 0.00 | 31 | |
| 20260506223012 | 26 | 335 | 9.7 | 19.3 | 0.00 | 0.00 | 0.00 | 31 | |
| 20260506222512 | 26 | 13 | 14.5 | 22.5 | 0.00 | 0.00 | 0.00 | 31 | |
| 20260506222009 | 26 | 10 | 12.9 | 22.5 | 0.00 | 0.00 | 0.00 | 31 | |
| 20260506221509 | 26 | 354 | 11.3 | 17.7 | 0.00 | 0.00 | 0.00 | 31 | |
| 20260506221009 | 26 | 0 | 8.0 | 16.1 | 0.00 | 0.00 | 0.00 | 30 | |
| 20260506220508 | 26 | 15 | 12.9 | 22.5 | 0.00 | 0.00 | 0.00 | 31 | |
| 20260506220008 | 26 | 44 | 11.3 | 20.9 | 0.00 | 0.00 | 0.00 | 32 | |
| 20260506215503 | 25 | 105 | 6.4 | 14.5 | 0.00 | 0.00 | 0.00 | 33 | |
| 20260506215001 | 25 | 316 | 9.7 | 16.1 | 0.00 | 0.00 | 0.00 | 34 | |
| 20260506214459 | 25 | 338 | 12.9 | 19.3 | 0.00 | 0.00 | 0.00 | 33 | |
| 20260506213954 | 25 | 332 | 9.7 | 22.5 | 0.00 | 0.00 | 0.00 | 33 | |
| 20260506213447 | 25 | 309 | 9.7 | 14.5 | 0.00 | 0.00 | 0.00 | 34 | |
| 20260506212943 | 25 | 321 | 12.9 | 20.9 | 0.00 | 0.00 | 0.00 | 33 | |
| 20260506212443 | 25 | 359 | 16.1 | 24.1 | 0.00 | 0.00 | 0.00 | 33 | |
| 20260506211943 | 26 | 319 | 14.5 | 29.0 | 0.00 | 0.00 | 0.00 | 34 | |
| 20260506211442 | 26 | 146 | 8.0 | 14.5 | 0.00 | 0.00 | 0.00 | 35 | |
| 20260506210942 | 25 | 132 | 4.8 | 12.9 | 0.00 | 0.00 | 0.00 | 35 | |
| 20260506210438 | 25 | 7 | 4.8 | 17.7 | 0.00 | 0.00 | 0.00 | 34 | |
| 20260506205938 | 25 | 31 | 6.4 | 12.9 | 0.00 | 0.00 | 0.00 | 35 | |
| 20260506205429 | 25 | 34 | 8.0 | 20.9 | 0.00 | 0.00 | 0.00 | 35 | |
| 20260506204925 | 25 | 37 | 12.9 | 20.9 | 0.00 | 0.00 | 0.00 | 35 | |
| 20260506204424 | 25 | 31 | 12.9 | 27.4 | 0.00 | 0.00 | 0.00 | 36 | |
| 20260506203923 | 25 | 11 | 11.3 | 20.9 | 0.00 | 0.00 | 0.00 | 35 | |
| 20260506203422 | 25 | 110 | 3.2 | 9.7 | 0.00 | 0.00 | 0.00 | 34 | |
| 20260506202922 | 25 | 60 | 8.0 | 14.5 | 0.00 | 0.00 | 0.00 | 34 | |
| 20260506202418 | 25 | 35 | 4.8 | 11.3 | 0.00 | 0.00 | 0.00 | 35 | |
| 20260506201912 | 25 | 31 | 3.2 | 11.3 | 0.00 | 0.00 | 0.00 | 36 | |
| 20260506201411 | 24 | 56 | 3.2 | 11.3 | 0.00 | 0.00 | 0.00 | 36 | |
| 20260506200906 | 24 | 6 | 11.3 | 19.3 | 0.00 | 0.00 | 0.00 | 35 | |
| 20260506200405 | 23 | 15 | 8.0 | 19.3 | 0.00 | 0.00 | 0.00 | 35 | |
| 20260506195905 | 24 | 277 | 3.2 | 8.0 | 0.00 | 0.00 | 0.00 | 37 | |
| 20260506195405 | 23 | 298 | 8.0 | 14.5 | 0.00 | 0.00 | 0.00 | 38 | |
| 20260506194905 | 24 | 346 | 1.6 | 8.0 | 0.00 | 0.00 | 0.00 | 37 | |
| 20260506194404 | 24 | 328 | 4.8 | 16.1 | 0.00 | 0.00 | 0.00 | 37 | |
| 20260506193903 | 23 | 200 | 3.2 | 8.0 | 0.00 | 0.00 | 0.00 | 40 | |
| 20260506192858 | 23 | 305 | 8.0 | 12.9 | 0.00 | 0.00 | 0.00 | 58 | |
| 20260506192357 | 23 | 59 | 6.4 | 12.9 | 0.00 | 0.00 | 0.00 | 59 | |
| 20260506191845 | 23 | 357 | 9.7 | 16.1 | 0.00 | 0.00 | 0.00 | 59 | |
| 20260506191343 | 22 | 46 | 8.0 | 12.9 | 0.00 | 0.00 | 0.00 | 60 | |
| 20260506190840 | 22 | 338 | 8.0 | 14.5 | 0.00 | 0.00 | 0.00 | 60 | |
| 20260506190340 | 22 | 333 | 8.0 | 19.3 | 0.00 | 0.00 | 0.00 | 60 | |
| 20260506185839 | 22 | 309 | 6.4 | 14.5 | 0.00 | 0.00 | 0.00 | 61 | |
| 20260506184333 | 21 | 34 | 3.2 | 8.0 | 0.00 | 0.00 | 0.00 | 62 | |
| 20260506183833 | 21 | 353 | 6.4 | 11.3 | 0.00 | 0.00 | 0.00 | 63 | |
| 20260506183332 | 21 | 356 | 6.4 | 12.9 | 0.00 | 0.00 | 0.00 | 63 | |
| 20260506182831 | 21 | 68 | 3.2 | 9.7 | 0.00 | 0.00 | 0.00 | 55 | |
| 20260506182331 | 20 | 333 | 6.4 | 12.9 | 0.00 | 0.00 | 0.00 | 53 | |
| 20260506181831 | 20 | 343 | 4.8 | 11.3 | 0.00 | 0.00 | 0.00 | 55 | |
| 20260506181329 | 20 | 342 | 6.4 | 12.9 | 0.00 | 0.00 | 0.00 | 53 | |
| 20260506180829 | 20 | 84 | 1.6 | 8.0 | 0.00 | 0.00 | 0.00 | 55 | |
| 20260506180328 | 20 | 166 | 3.2 | 9.7 | 0.00 | 0.00 | 0.00 | 60 | |
| 20260506175823 | 20 | 325 | 3.2 | 9.7 | 0.00 | 0.00 | 0.00 | 51 | |
| 20260506175322 | 20 | 336 | 8.0 | 14.5 | 0.00 | 0.00 | 0.00 | 54 | |
| 20260506174813 | 19 | 335 | 4.8 | 12.9 | 0.00 | 0.00 | 0.00 | 51 | |
| 20260506174312 | 19 | 326 | 3.2 | 11.3 | 0.00 | 0.00 | 0.00 | 65 | |
| 20260506173806 | 19 | 339 | 8.0 | 12.9 | 0.00 | 0.00 | 0.00 | 66 | |
| 20260506173306 | 18 | 357 | 8.0 | 11.3 | 0.00 | 0.00 | 0.00 | 65 | |
| 20260506172806 | 18 | 3 | 9.7 | 14.5 | 0.00 | 0.00 | 0.00 | 66 | |
| 20260506172307 | 18 | 34 | 4.8 | 16.1 | 0.00 | 0.00 | 0.00 | 64 | |
| 20260506171805 | 18 | 300 | 1.6 | 6.4 | 0.00 | 0.00 | 0.00 | 65 | |
| 20260506171305 | 18 | 15 | 4.8 | 11.3 | 0.00 | 0.00 | 0.00 | 64 | |
| 20260506170804 | 18 | 35 | 4.8 | 11.3 | 0.00 | 0.00 | 0.00 | 63 | |
| 20260506170304 | 18 | 294 | 1.6 | 9.7 | 0.00 | 0.00 | 0.00 | 64 | |
| 20260506165802 | 18 | 328 | 3.2 | 8.0 | 0.00 | 0.00 | 0.00 | 65 | |
| 20260506165300 | 17 | 352 | 1.6 | 9.7 | 0.00 | 0.00 | 0.00 | 64 | |
| 20260506164759 | 17 | 51 | 4.8 | 11.3 | 0.00 | 0.00 | 0.00 | 62 | |
| 20260506164258 | 17 | 8 | 1.6 | 9.7 | 0.00 | 0.00 | 0.00 | 63 | |
| 20260506163756 | 17 | 307 | 0.0 | 4.8 | 0.00 | 0.00 | 0.00 | 63 | |
| 20260506163255 | 17 | 311 | 3.2 | 8.0 | 0.00 | 0.00 | 0.00 | 63 | |
| 20260506162754 | 17 | 340 | 6.4 | 11.3 | 0.00 | 0.00 | 0.00 | 63 | |
| 20260506162253 | 16 | 304 | 4.8 | 8.0 | 0.00 | 0.00 | 0.00 | 64 | |
| 20260506161752 | 16 | 300 | 4.8 | 11.3 | 0.00 | 0.00 | 0.00 | 66 | |
| 20260506161251 | 16 | 312 | 8.0 | 12.9 | 0.00 | 0.00 | 0.00 | 65 | |
| 20260506160748 | 17 | 312 | 4.8 | 9.7 | 0.00 | 0.00 | 0.00 | 64 | |
| 20260506160246 | 17 | 62 | 8.0 | 9.7 | 0.00 | 0.00 | 0.00 | 64 | |
| 20260506155743 | 17 | 17 | 3.2 | 6.4 | 0.00 | 0.00 | 0.00 | 65 | |
| 20260506155241 | 17 | 38 | 1.6 | 4.8 | 0.00 | 0.00 | 0.00 | 64 | |
| 20260506154739 | 17 | 59 | 1.6 | 4.8 | 0.00 | 0.00 | 0.00 | 63 | |
| 20260506154238 | 17 | 190 | 0.0 | 1.6 | 0.00 | 0.00 | 0.00 | 65 | |
| 20260506153236 | 16 | 165 | 3.2 | 8.0 | 0.00 | 0.00 | 0.00 | 67 | |
| 20260506152736 | 16 | 155 | 3.2 | 8.0 | 0.00 | 0.00 | 0.00 | 68 | |
| 20260506152233 | 15 | 228 | 4.8 | 12.9 | 0.00 | 0.00 | 0.00 | 68 | |
| 20260506151732 | 15 | 179 | 4.8 | 11.3 | 0.00 | 0.00 | 0.00 | 69 | |
| 20260506151232 | 15 | 188 | 6.4 | 16.1 | 0.00 | 0.00 | 0.00 | 70 | |
| 20260506150729 | 14 | 176 | 11.3 | 16.1 | 0.00 | 0.00 | 0.00 | 69 | |
| 20260506150229 | 14 | 162 | 12.9 | 17.7 | 0.00 | 0.00 | 0.00 | 69 | |
| 20260506145728 | 15 | 172 | 9.7 | 17.7 | 0.00 | 0.00 | 0.00 | 69 | |
| 20260506145227 | 14 | 181 | 4.8 | 9.7 | 0.00 | 0.00 | 0.00 | 71 | |
| 20260506144725 | 14 | 187 | 4.8 | 14.5 | 0.00 | 0.00 | 0.00 | 72 | |
| 20260506144222 | 13 | 215 | 3.2 | 6.4 | 0.00 | 0.00 | 0.00 | 74 | |
| 20260506143722 | 13 | 179 | 1.6 | 6.4 | 0.00 | 0.00 | 0.00 | 76 | |
| 20260506143221 | 12 | 153 | 0.0 | 1.6 | 0.00 | 0.00 | 0.00 | 78 | |
| 20260506142720 | 12 | 0 | 0.0 | 0.0 | 0.00 | 0.00 | 0.00 | 80 | |
| 20260506142219 | 12 | 262 | 0.0 | 4.8 | 0.00 | 0.00 | 0.00 | 80 | |
| 20260506141718 | 12 | 269 | 0.0 | 6.4 | 0.00 | 0.00 | 0.00 | 80 | |
| 20260506141218 | 11 | 293 | 0.0 | 4.8 | 0.00 | 0.00 | 0.00 | 81 | |
| 20260506140718 | 11 | 307 | 1.6 | 4.8 | 0.00 | 0.00 | 0.00 | 82 | |
| 20260506140217 | 11 | 0 | 0.0 | 0.0 | 0.00 | 0.00 | 0.00 | 84 | |
| 20260506135717 | 11 | 0 | 0.0 | 0.0 | 0.00 | 0.00 | 0.00 | 84 | |
| 20260506135217 | 11 | 0 | 0.0 | 0.0 | 0.00 | 0.00 | 0.00 | 85 | |
| 20260506134715 | 10 | 0 | 0.0 | 0.0 | 0.00 | 0.00 | 0.00 | 86 | |
| 20260506134214 | 10 | 308 | 1.6 | 6.4 | 0.00 | 0.00 | 0.00 | 85 | |
| 20260506133714 | 10 | 252 | 4.8 | 9.7 | 0.00 | 0.00 | 0.00 | 85 | |
| 20260506133214 | 10 | 233 | 4.8 | 8.0 | 0.00 | 0.00 | 0.00 | 88 | |
| 20260506132707 | 10 | 219 | 8.0 | 14.5 | 0.00 | 0.00 | 0.00 | 89 | |
| 20260506132206 | 9 | 215 | 8.0 | 12.9 | 0.00 | 0.00 | 0.00 | 90 | |
| 20260506131705 | 9 | 212 | 6.4 | 12.9 | 0.00 | 0.00 | 0.00 | 89 | |
| 20260506131205 | 8 | 208 | 3.2 | 8.0 | 0.00 | 0.00 | 0.00 | 88 | |
| 20260506130704 | 8 | 225 | 3.2 | 8.0 | 0.00 | 0.00 | 0.00 | 87 | |
| 20260506130204 | 8 | 231 | 6.4 | 8.0 | 0.00 | 0.00 | 0.00 | 87 | |
| 20260506125701 | 9 | 232 | 0.0 | 8.0 | 0.00 | 0.00 | 0.00 | 85 | |
| 20260506125201 | 9 | 0 | 0.0 | 0.0 | 0.00 | 0.00 | 0.00 | 86 | |
| 20260506124701 | 9 | 0 | 0.0 | 0.0 | 0.00 | 0.00 | 0.00 | 88 | |
| 20260506124200 | 9 | 343 | 0.0 | 1.6 | 0.00 | 0.00 | 0.00 | 87 | |
| 20260506123156 | 9 | 0 | 0.0 | 0.0 | 0.00 | 0.00 | 0.00 | 87 | |
| 20260506122655 | 9 | 0 | 0.0 | 0.0 | 0.00 | 0.00 | 0.00 | 87 | |
| 20260506122155 | 9 | 0 | 0.0 | 0.0 | 0.00 | 0.00 | 0.00 | 86 | |
| 20260506121655 | 9 | 246 | 1.6 | 4.8 | 0.00 | 0.00 | 0.00 | 86 | |
| 20260506121155 | 10 | 231 | 1.6 | 6.4 | 0.00 | 0.00 | 0.00 | 86 | |
| 20260506120654 | 10 | 323 | 0.0 | 1.6 | 0.00 | 0.00 | 0.00 | 85 | |
| 20260506120151 | 10 | 225 | 1.6 | 8.0 | 0.00 | 0.00 | 0.00 | 86 | |
| 20260506115651 | 10 | 235 | 3.2 | 8.0 | 0.00 | 0.00 | 0.00 | 84 | |
| 20260506114649 | 10 | 262 | 3.2 | 6.4 | 0.00 | 0.00 | 0.00 | 85 | |
| 20260506114149 | 10 | 231 | 4.8 | 8.0 | 0.00 | 0.00 | 0.00 | 84 | |
| 20260506113648 | 10 | 221 | 3.2 | 8.0 | 0.00 | 0.00 | 0.00 | 84 | |
| 20260506113148 | 10 | 229 | 3.2 | 6.4 | 0.00 | 0.00 | 0.00 | 84 | |
| 20260506112644 | 10 | 245 | 4.8 | 9.7 | 0.00 | 0.00 | 0.00 | 84 | |
| 20260506112140 | 10 | 250 | 3.2 | 8.0 | 0.00 | 0.00 | 0.00 | 84 | |
| 20260506111635 | 10 | 229 | 4.8 | 9.7 | 0.00 | 0.00 | 0.00 | 84 | |
| 20260506111134 | 10 | 232 | 0.0 | 4.8 | 0.00 | 0.00 | 0.00 | 84 | |
| 20260506110633 | 10 | 229 | 4.8 | 11.3 | 0.00 | 0.00 | 0.00 | 84 | |
| 20260506110130 | 10 | 215 | 6.4 | 12.9 | 0.00 | 0.00 | 0.00 | 84 | |
| 20260506105627 | 10 | 235 | 8.0 | 14.5 | 0.00 | 0.00 | 0.00 | 84 | |
| 20260506105127 | 10 | 203 | 8.0 | 12.9 | 0.00 | 0.00 | 0.00 | 84 | |
| 20260506104626 | 10 | 219 | 9.7 | 16.1 | 0.00 | 0.00 | 0.00 | 84 | |
| 20260506104126 | 10 | 222 | 9.7 | 17.7 | 0.00 | 0.00 | 0.00 | 84 | |
| 20260506103626 | 10 | 238 | 8.0 | 16.1 | 0.00 | 0.00 | 0.00 | 84 | |
| 20260506103125 | 10 | 212 | 8.0 | 14.5 | 0.00 | 0.00 | 0.00 | 84 | |
| 20260506102624 | 10 | 233 | 8.0 | 16.1 | 0.00 | 0.00 | 0.00 | 84 | |
| 20260506102124 | 10 | 235 | 8.0 | 14.5 | 0.00 | 0.00 | 0.00 | 84 | |
| 20260506101625 | 10 | 217 | 11.3 | 19.3 | 0.00 | 0.00 | 0.00 | 84 | |
| 20260506101121 | 10 | 245 | 6.4 | 14.5 | 0.00 | 0.00 | 0.00 | 84 | |
| 20260506100620 | 10 | 225 | 8.0 | 16.1 | 0.00 | 0.00 | 0.00 | 84 | |
| 20260506100119 | 10 | 222 | 8.0 | 14.5 | 0.00 | 0.00 | 0.00 | 83 | |
| 20260506095617 | 11 | 224 | 8.0 | 16.1 | 0.00 | 0.00 | 0.00 | 83 | |
| 20260506095117 | 11 | 229 | 9.7 | 16.1 | 0.00 | 0.00 | 0.00 | 83 | |
| 20260506094617 | 11 | 233 | 8.0 | 19.3 | 0.00 | 0.00 | 0.00 | 83 | |
| 20260506094117 | 11 | 239 | 6.4 | 14.5 | 0.00 | 0.00 | 0.00 | 82 | |
| 20260506093615 | 11 | 235 | 9.7 | 17.7 | 0.00 | 0.00 | 0.00 | 83 | |
| 20260506093114 | 11 | 235 | 8.0 | 19.3 | 0.00 | 0.00 | 0.00 | 82 | |
| 20260506092614 | 11 | 221 | 9.7 | 16.1 | 0.00 | 0.00 | 0.00 | 82 | |
| 20260506092114 | 11 | 253 | 8.0 | 14.5 | 0.00 | 0.00 | 0.00 | 83 | |
| 20260506091615 | 10 | 226 | 6.4 | 14.5 | 0.00 | 0.00 | 0.00 | ||
| 20260506091613 | 10 | 226 | 6.4 | 14.5 | 0.00 | 0.00 | 0.00 | 83 | |
| 20260506091112 | 10 | 235 | 8.0 | 19.3 | 0.00 | 0.00 | 0.00 | 83 | |
| 20260506090612 | 10 | 215 | 8.0 | 17.7 | 0.00 | 0.00 | 0.00 | 83 | |
| 20260506090104 | 10 | 221 | 8.0 | 14.5 | 0.00 | 0.00 | 0.00 | 82 | |
| 20260506085604 | 10 | 249 | 9.7 | 17.7 | 0.00 | 0.00 | 0.00 | 83 | |
| 20260506084603 | 10 | 242 | 11.3 | 19.3 | 0.00 | 0.00 | 0.00 | 82 | |
| 20260506084101 | 10 | 236 | 11.3 | 22.5 | 0.00 | 0.00 | 0.00 | 82 | |
| 20260506084059 | 10 | 236 | 11.3 | 22.5 | 0.00 | 0.00 | 0.00 | 82 | |
| 20260506083557 | 10 | 226 | 12.9 | 27.4 | 0.00 | 0.00 | 0.00 | 82 | |
| 20260506083056 | 11 | 225 | 11.3 | 22.5 | 0.00 | 0.00 | 0.00 | 82 | |
| 20260506082556 | 11 | 232 | 9.7 | 22.5 | 0.00 | 0.00 | 0.00 | 82 | |
| 20260506082051 | 11 | 235 | 8.0 | 19.3 | 0.00 | 0.00 | 0.00 | 82 | |
| 20260506082049 | 11 | 235 | 8.0 | 19.3 | 0.00 | 0.00 | 0.00 | 82 | |
| 20260506081550 | 11 | 222 | 9.7 | 22.5 | 0.00 | 0.00 | 0.00 | 82 | |
| 20260506081047 | 11 | 226 | 9.7 | 19.3 | 0.00 | 0.00 | 0.00 | 82 | |
| 20260506080547 | 11 | 232 | 11.3 | 17.7 | 0.00 | 0.00 | 0.00 | 82 | |
| 20260506080133 | 11 | 212 | 11.3 | 17.7 | 0.00 | 0.00 | 0.00 | 82 | |
| 20260506072533 | 11 | 240 | 9.7 | 16.1 | 0.00 | 0.00 | 0.00 | 83 | |
| 20260506072104 | 11 | 218 | 11.3 | 22.5 | 0.00 | 0.00 | 0.00 | 82 | |
| 20260506072033 | 11 | 218 | 11.3 | 22.5 | 0.00 | 0.00 | 0.00 | 82 | |
| 20260506071532 | 11 | 224 | 9.7 | 19.3 | 0.00 | 0.00 | 0.00 | 82 | |
| 20260506071032 | 11 | 231 | 8.0 | 16.1 | 0.00 | 0.00 | 0.00 | 82 | |
| 20260506070532 | 11 | 221 | 9.7 | 19.3 | 0.00 | 0.00 | 0.00 | 82 | |
| 20260506062026 | 11 | 235 | 9.7 | 20.9 | 0.00 | 0.00 | 0.00 | 80 | |
| 20260506061526 | 11 | 214 | 9.7 | 19.3 | 0.00 | 0.00 | 0.00 | 80 | |
| 20260506061017 | 11 | 257 | 8.0 | 16.1 | 0.00 | 0.00 | 0.00 | 80 | |
| 20260506060515 | 11 | 222 | 8.0 | 14.5 | 0.00 | 0.00 | 0.00 | 80 | |
| 20260506051007 | 11 | 267 | 6.4 | 16.1 | 0.00 | 0.00 | 0.00 | 80 | |
| 20260506050507 | 11 | 233 | 9.7 | 20.9 | 0.00 | 0.00 | 0.00 | 80 | |
| 20260506045002 | 11 | 249 | 6.4 | 12.9 | 0.00 | 0.00 | 0.00 | 80 | |
| 20260506044002 | 11 | 225 | 9.7 | 19.3 | 0.00 | 0.00 | 0.00 | 80 | |
| 20260506043002 | 11 | 238 | 9.7 | 22.5 | 0.00 | 0.00 | 0.00 | 80 | |
| 20260506042452 | 11 | 246 | 9.7 | 25.7 | 0.00 | 0.00 | 0.00 | 80 | |
| 20260506041950 | 12 | 260 | 8.0 | 16.1 | 0.00 | 0.00 | 0.00 | 79 | |
| 20260506041449 | 12 | 271 | 6.4 | 14.5 | 0.00 | 0.00 | 0.00 | 79 | |
| 20260506040949 | 12 | 257 | 9.7 | 17.7 | 0.00 | 0.00 | 0.00 | 79 | |
| 20260506040445 | 12 | 243 | 11.3 | 19.3 | 0.00 | 0.00 | 0.00 | 79 | |
| 20260506035945 | 12 | 242 | 8.0 | 19.3 | 0.00 | 0.00 | 0.00 | 79 | |
| 20260506035445 | 12 | 271 | 6.4 | 14.5 | 0.00 | 0.00 | 0.00 | 79 | |
| 20260506034944 | 12 | 263 | 8.0 | 14.5 | 0.00 | 0.00 | 0.00 | 78 | |
| 20260506034436 | 12 | 248 | 6.4 | 17.7 | 0.00 | 0.00 | 0.00 | 78 | |
| 20260506033934 | 12 | 252 | 9.7 | 19.3 | 0.00 | 0.00 | 0.00 | 78 | |
| 20260506033434 | 12 | 255 | 11.3 | 19.3 | 0.00 | 0.00 | 0.00 | 77 | |
| 20260506032933 | 12 | 255 | 8.0 | 16.1 | 0.00 | 0.00 | 0.00 | 77 | |
| 20260506032433 | 12 | 255 | 11.3 | 22.5 | 0.00 | 0.00 | 0.00 | 77 | |
| 20260506031932 | 12 | 257 | 9.7 | 17.7 | 0.00 | 0.00 | 0.00 | 93 | |
| 20260506031424 | 12 | 257 | 12.9 | 20.9 | 0.00 | 0.00 | 0.00 | 93 | |
| 20260506030915 | 12 | 257 | 11.3 | 20.9 | 0.00 | 0.00 | 0.00 | 92 | |
| 20260506030410 | 12 | 250 | 9.7 | 17.7 | 0.00 | 0.00 | 0.00 | 92 | |
| 20260506025910 | 12 | 252 | 12.9 | 20.9 | 0.00 | 0.00 | 0.00 | 92 | |
| 20260506025908 | 12 | 252 | 12.9 | 20.9 | 0.00 | 0.00 | 0.00 | 92 | |
| 20260506025408 | 13 | 257 | 14.5 | 25.7 | 0.00 | 0.00 | 0.00 | 91 | |
| 20260506025128 | 13 | 257 | 12.9 | 20.9 | 0.00 | 0.00 | 0.00 | 90 | |
| 20260506024907 | 13 | 257 | 12.9 | 20.9 | 0.00 | 0.00 | 0.00 | 90 | |
| 20260506024407 | 13 | 250 | 12.9 | 20.9 | 0.00 | 0.00 | 0.00 | 90 | |
| 20260506023907 | 13 | 259 | 9.7 | 17.7 | 0.00 | 0.00 | 0.00 | 89 | |
| 20260506023403 | 13 | 267 | 9.7 | 16.1 | 0.00 | 0.00 | 0.00 | 88 | |
| 20260506022901 | 13 | 259 | 11.3 | 19.3 | 0.00 | 0.00 | 0.00 | 88 | |
| 20260506022401 | 14 | 257 | 14.5 | 27.4 | 0.00 | 0.00 | 0.00 | 87 | |
| 20260506021900 | 14 | 259 | 11.3 | 20.9 | 0.00 | 0.00 | 0.00 | 87 | |
| 20260506021359 | 14 | 260 | 16.1 | 27.4 | 0.00 | 0.00 | 0.00 | 86 | |
| 20260506021357 | 14 | 260 | 16.1 | 27.4 | 0.00 | 0.00 | 0.00 | 86 | |
| 20260506020846 | 14 | 262 | 19.3 | 32.2 | 0.00 | 0.00 | 0.00 | 87 | |
| 20260506020357 | 14 | 245 | 17.7 | 32.2 | 0.00 | 0.00 | 0.00 | 86 | |
| 20260506015844 | 15 | 255 | 12.9 | 27.4 | 0.00 | 0.00 | 0.00 | 86 | |
| 20260506015343 | 15 | 249 | 16.1 | 29.0 | 0.00 | 0.00 | 0.00 | 85 | |
| 20260506014843 | 15 | 262 | 16.1 | 29.0 | 0.00 | 0.00 | 0.00 | 85 | |
| 20260506014341 | 15 | 245 | 17.7 | 30.6 | 0.00 | 0.00 | 0.00 | 84 | |
| 20260506013841 | 15 | 255 | 19.3 | 37.0 | 0.00 | 0.00 | 0.00 | 84 | |
| 20260506012840 | 15 | 267 | 16.1 | 29.0 | 0.00 | 0.00 | 0.00 | 83 | |
| 20260506012339 | 15 | 255 | 12.9 | 24.1 | 0.00 | 0.00 | 0.00 | 82 | |
| 20260506011839 | 15 | 262 | 16.1 | 33.8 | 0.00 | 0.00 | 0.00 | 82 | |
| 20260506011339 | 16 | 259 | 20.9 | 30.6 | 0.00 | 0.00 | 0.00 | 82 | |
| 20260506010839 | 16 | 253 | 20.9 | 35.4 | 0.00 | 0.00 | 0.00 | 82 | |
| 20260506010338 | 16 | 252 | 20.9 | 35.4 | 0.00 | 0.00 | 0.00 | 81 | |
| 20260506005838 | 16 | 269 | 19.3 | 30.6 | 0.00 | 0.00 | 0.00 | 81 | |
| 20260506005338 | 16 | 271 | 17.7 | 35.4 | 0.00 | 0.00 | 0.00 | 80 | |
| 20260506004837 | 16 | 249 | 19.3 | 32.2 | 0.00 | 0.00 | 0.00 | 79 | |
| 20260506004337 | 16 | 253 | 17.7 | 30.6 | 0.00 | 0.00 | 0.00 | 79 | |
| 20260506003334 | 17 | 253 | 19.3 | 35.4 | 0.00 | 0.00 | 0.00 | 79 | |
| 20260506002834 | 17 | 245 | 22.5 | 35.4 | 0.00 | 0.00 | 0.00 | 78 | |
| 20260506002330 | 17 | 264 | 20.9 | 33.8 | 0.00 | 0.00 | 0.00 | 77 | |
| 20260506001829 | 17 | 259 | 20.9 | 40.2 | 0.00 | 0.00 | 0.00 | 76 | |
| 20260506001329 | 17 | 249 | 20.9 | 33.8 | 0.00 | 0.00 | 0.00 | 76 | |
| 20260506000829 | 17 | 253 | 14.5 | 29.0 | 0.00 | 0.00 | 0.00 | 76 | |
| 20260506000330 | 17 | 240 | 14.5 | 25.7 | 0.00 | 0.00 | 0.00 | 76 | |
| 20260505235822 | 17 | 250 | 20.9 | 40.2 | 0.00 | 0.00 | 0.00 | 76 | |
| 20260505235319 | 17 | 253 | 16.1 | 27.4 | 0.00 | 0.00 | 0.00 | 76 | |
| 20260505234819 | 17 | 249 | 17.7 | 30.6 | 0.00 | 0.00 | 0.00 | 76 | |
| 20260505234319 | 17 | 259 | 17.7 | 32.2 | 0.00 | 0.00 | 0.00 | 77 | |
| 20260505233816 | 17 | 249 | 19.3 | 38.6 | 0.00 | 0.00 | 0.00 | 76 | |
| 20260505233315 | 17 | 255 | 19.3 | 33.8 | 0.00 | 0.00 | 0.00 | 76 | |
| 20260505232810 | 17 | 226 | 20.9 | 40.2 | 0.00 | 0.00 | 0.00 | 76 |